Time;durP1;ratioP1;P1;durP2;ratioP2;P2;SDS_P1;SDS_P2;PMS_P1;PMS_P2;Temp;Humidity;BMP_temperature;BMP_pressure;BME280_temperature;BME280_humidity;BME280_pressure;Samples;Min_cycle;Max_cycle;Signal;HPM_P1;HPM_P2
2023/12/09 00:01:43;;;;;;;4.93;2.80;;;8.90;99.90;;;;;;7388712;19;20639;-73
2023/12/09 00:04:09;;;;;;;4.40;2.47;;;8.80;99.90;;;;;;7384279;19;20137;-72
2023/12/09 00:06:36;;;;;;;3.33;2.40;;;8.70;99.90;;;;;;7383467;19;20162;-72
2023/12/09 00:09:02;;;;;;;2.17;1.97;;;8.70;99.90;;;;;;7377206;19;20156;-73
2023/12/09 00:11:28;;;;;;;1.90;1.60;;;8.80;99.90;;;;;;7392336;19;20138;-72
2023/12/09 00:13:54;;;;;;;3.10;1.93;;;8.80;99.90;;;;;;7387947;19;20218;-73
2023/12/09 00:16:20;;;;;;;2.83;2.07;;;8.80;99.90;;;;;;7393972;19;20197;-72
2023/12/09 00:18:46;;;;;;;1.77;1.53;;;8.90;99.90;;;;;;7389662;19;20134;-73
2023/12/09 00:21:11;;;;;;;2.03;1.60;;;8.80;99.90;;;;;;7389004;19;20217;-72
2023/12/09 00:23:37;;;;;;;2.13;1.70;;;8.90;99.90;;;;;;7390181;19;20233;-73
2023/12/09 00:26:03;;;;;;;2.30;2.10;;;9.00;99.90;;;;;;7386856;19;20167;-73
2023/12/09 00:28:29;;;;;;;2.07;1.87;;;9.00;99.90;;;;;;7390854;19;20155;-72
2023/12/09 00:30:54;;;;;;;2.40;1.80;;;8.90;99.90;;;;;;7389010;19;20575;-73
2023/12/09 00:33:20;;;;;;;2.10;1.50;;;8.80;99.90;;;;;;7390354;19;20222;-72
2023/12/09 00:35:46;;;;;;;2.57;1.77;;;8.80;99.90;;;;;;7392890;19;20151;-73
2023/12/09 00:38:12;;;;;;;1.70;1.60;;;8.80;99.90;;;;;;7389459;19;20158;-73
2023/12/09 00:40:37;;;;;;;2.43;2.20;;;8.80;99.90;;;;;;7395279;19;20146;-73
2023/12/09 00:43:03;;;;;;;3.00;1.77;;;8.90;99.90;;;;;;7391527;19;20579;-72
2023/12/09 00:45:29;;;;;;;2.80;1.87;;;8.80;99.90;;;;;;7392390;19;20139;-72
2023/12/09 00:47:55;;;;;;;3.50;1.87;;;8.60;99.90;;;;;;7391179;19;20154;-72
2023/12/09 00:50:20;;;;;;;1.60;1.50;;;8.50;99.90;;;;;;7394209;19;20131;-73
2023/12/09 00:52:46;;;;;;;2.60;1.83;;;8.50;99.90;;;;;;7385750;19;20147;-74
2023/12/09 00:55:12;;;;;;;2.47;1.93;;;8.50;99.90;;;;;;7387765;19;20123;-73
2023/12/09 00:57:37;;;;;;;3.23;1.67;;;8.60;99.90;;;;;;7388171;19;20138;-74
2023/12/09 01:00:04;;;;;;;2.20;2.00;;;8.70;99.90;;;;;;7390286;19;20531;-73
2023/12/09 01:02:31;;;;;;;2.20;1.50;;;8.80;99.90;;;;;;7388860;19;20127;-72
2023/12/09 01:04:57;;;;;;;2.00;1.80;;;8.80;99.90;;;;;;7381902;19;20170;-72
2023/12/09 01:07:23;;;;;;;2.70;1.90;;;8.90;99.90;;;;;;7392393;19;20151;-73
2023/12/09 01:09:49;;;;;;;2.10;1.80;;;9.00;99.90;;;;;;7387271;19;20151;-74
2023/12/09 01:12:15;;;;;;;2.93;2.17;;;9.00;99.90;;;;;;7378986;19;20135;-73
2023/12/09 01:14:40;;;;;;;4.30;2.53;;;9.00;99.90;;;;;;7394913;19;20157;-74
2023/12/09 01:17:06;;;;;;;2.97;2.30;;;8.80;99.90;;;;;;7395217;19;20135;-72
2023/12/09 01:19:33;;;;;;;2.90;2.00;;;8.80;99.90;;;;;;7395002;19;20146;-73
2023/12/09 01:21:59;;;;;;;1.73;1.63;;;8.90;99.90;;;;;;7383817;19;20157;-74
2023/12/09 01:24:24;;;;;;;2.43;1.60;;;8.80;99.90;;;;;;7382629;19;20130;-73
2023/12/09 01:26:50;;;;;;;2.73;2.33;;;8.80;99.90;;;;;;7389844;19;20174;-73
2023/12/09 01:29:16;;;;;;;3.57;2.37;;;8.90;99.90;;;;;;7383436;19;20139;-73
2023/12/09 01:31:41;;;;;;;2.10;1.80;;;8.80;99.90;;;;;;7388037;19;20138;-73
2023/12/09 01:34:07;;;;;;;2.10;1.73;;;8.80;99.90;;;;;;7389769;19;20851;-72
2023/12/09 01:36:33;;;;;;;2.50;1.83;;;8.90;99.90;;;;;;7392342;19;20614;-72
2023/12/09 01:38:58;;;;;;;2.07;1.80;;;8.90;99.90;;;;;;7389578;19;20138;-73
2023/12/09 01:41:24;;;;;;;2.43;1.70;;;8.90;99.90;;;;;;7382712;19;20499;-73
2023/12/09 01:43:50;;;;;;;2.53;1.70;;;9.00;99.90;;;;;;7381989;19;20634;-72
2023/12/09 01:46:18;;;;;;;1.67;1.57;;;9.00;99.90;;;;;;7382026;19;20129;-73
2023/12/09 01:48:44;;;;;;;3.03;1.90;;;8.80;99.90;;;;;;7376300;19;20134;-72
2023/12/09 01:51:11;;;;;;;1.83;1.50;;;8.90;99.90;;;;;;7379900;19;20193;-73
2023/12/09 01:53:37;;;;;;;1.47;1.30;;;8.90;99.90;;;;;;7384024;19;21701;-72
2023/12/09 01:56:06;;;;;;;2.20;1.83;;;8.90;99.90;;;;;;7381850;19;20226;-73
2023/12/09 01:58:35;;;;;;;3.90;1.80;;;8.60;99.90;;;;;;7377693;19;20138;-73
2023/12/09 02:01:02;;;;;;;2.80;1.77;;;8.50;99.90;;;;;;7381014;19;20783;-72
2023/12/09 02:03:29;;;;;;;2.47;1.80;;;8.50;99.90;;;;;;7381283;19;20142;-72
2023/12/09 02:05:55;;;;;;;1.83;1.30;;;8.40;99.90;;;;;;7375546;19;20178;-73
2023/12/09 02:08:21;;;;;;;3.60;2.00;;;8.60;99.90;;;;;;7379539;19;20290;-72
2023/12/09 02:10:58;;;;;;;1.27;1.17;;;8.70;99.90;;;;;;7381121;19;20159;-72
2023/12/09 02:13:38;;;;;;;1.83;1.30;;;8.90;99.90;;;;;;7381167;19;20535;-73
2023/12/09 02:16:17;;;;;;;1.60;1.50;;;9.00;99.90;;;;;;7379435;19;20145;-72
2023/12/09 02:18:44;;;;;;;1.30;1.20;;;8.90;99.90;;;;;;7380662;19;20130;-73
2023/12/09 02:21:10;;;;;;;3.40;1.67;;;8.80;99.90;;;;;;7378491;19;20130;-73
2023/12/09 02:23:35;;;;;;;2.10;1.27;;;8.60;99.90;;;;;;7378268;19;20610;-74
2023/12/09 02:26:07;;;;;;;3.67;1.90;;;8.80;99.90;;;;;;7389864;19;20158;-72
2023/12/09 02:28:37;;;;;;;2.70;1.90;;;8.80;99.90;;;;;;7382725;19;20146;-72
2023/12/09 02:31:13;;;;;;;2.47;1.70;;;8.80;99.90;;;;;;7385711;19;20135;-72
2023/12/09 02:33:40;;;;;;;2.20;1.50;;;8.70;99.90;;;;;;7382668;19;20150;-73
2023/12/09 02:36:09;;;;;;;1.63;1.53;;;8.80;99.90;;;;;;7387306;19;20154;-73
2023/12/09 02:38:37;;;;;;;1.67;1.30;;;8.90;99.90;;;;;;7387227;19;20547;-73
2023/12/09 02:41:06;;;;;;;1.47;1.30;;;8.80;99.90;;;;;;7390945;19;20126;-72
2023/12/09 02:43:32;;;;;;;1.87;1.47;;;8.80;99.90;;;;;;7377846;19;20161;-73
2023/12/09 02:45:57;;;;;;;3.60;2.43;;;8.80;99.90;;;;;;7381126;19;20599;-72
2023/12/09 02:48:23;;;;;;;2.10;1.63;;;8.90;99.90;;;;;;7377726;19;20131;-73
2023/12/09 02:50:50;;;;;;;1.47;1.37;;;8.80;99.90;;;;;;7382363;19;20137;-73
2023/12/09 02:53:16;;;;;;;1.87;1.60;;;8.90;99.90;;;;;;7387715;19;20142;-72
2023/12/09 02:55:42;;;;;;;2.60;1.30;;;8.70;99.90;;;;;;7384133;19;20158;-74
2023/12/09 02:58:07;;;;;;;1.23;1.13;;;8.60;99.90;;;;;;7383467;19;20142;-73
2023/12/09 03:00:33;;;;;;;1.90;1.60;;;8.70;99.90;;;;;;7383521;19;20123;-73
2023/12/09 03:02:59;;;;;;;1.50;1.20;;;8.70;99.90;;;;;;7384092;19;20138;-73
2023/12/09 03:05:25;;;;;;;2.77;1.73;;;8.80;99.90;;;;;;7371249;19;20225;-72
2023/12/09 03:07:51;;;;;;;1.63;1.40;;;8.80;99.90;;;;;;7388917;19;20149;-73
2023/12/09 03:10:17;;;;;;;1.33;1.03;;;8.70;99.90;;;;;;7391977;19;20148;-72
2023/12/09 03:12:42;;;;;;;2.20;1.63;;;8.80;99.90;;;;;;7391072;19;20139;-73
2023/12/09 03:15:09;;;;;;;2.03;1.70;;;8.90;99.90;;;;;;7391801;19;20154;-72
2023/12/09 03:17:35;;;;;;;2.40;1.37;;;9.00;99.90;;;;;;7388898;19;20178;-73
2023/12/09 03:20:02;;;;;;;1.50;1.40;;;8.90;99.90;;;;;;7391416;19;20130;-73
2023/12/09 03:22:28;;;;;;;1.43;1.33;;;8.80;99.90;;;;;;7390784;19;20526;-73
2023/12/09 03:24:54;;;;;;;1.23;1.03;;;8.80;99.90;;;;;;7390162;19;20146;-73
2023/12/09 03:27:19;;;;;;;2.40;1.73;;;8.70;99.90;;;;;;7390004;19;20548;-72
2023/12/09 03:29:45;;;;;;;1.37;1.13;;;8.80;99.90;;;;;;7390433;19;20170;-73
2023/12/09 03:32:11;;;;;;;2.33;1.37;;;8.80;99.90;;;;;;7389533;19;20143;-74
2023/12/09 03:34:36;;;;;;;1.37;1.17;;;8.60;99.90;;;;;;7389925;19;20571;-72
2023/12/09 03:37:02;;;;;;;1.40;1.00;;;8.30;99.90;;;;;;7389936;19;20130;-73
2023/12/09 03:39:28;;;;;;;1.43;1.20;;;8.50;99.90;;;;;;7388544;19;20154;-73
2023/12/09 03:41:54;;;;;;;2.30;1.57;;;8.60;99.90;;;;;;7390479;19;20138;-73
2023/12/09 03:44:19;;;;;;;2.27;1.40;;;8.70;99.90;;;;;;7389698;19;20682;-73
2023/12/09 03:46:45;;;;;;;1.70;1.20;;;8.60;99.90;;;;;;7396206;19;20146;-72
2023/12/09 03:49:11;;;;;;;1.33;1.00;;;8.80;99.90;;;;;;7398295;19;20134;-73
2023/12/09 03:51:36;;;;;;;1.60;1.50;;;8.90;99.90;;;;;;7397289;19;20134;-72
2023/12/09 03:54:02;;;;;;;2.80;1.97;;;8.80;99.90;;;;;;7398190;19;20198;-72
2023/12/09 03:56:29;;;;;;;3.10;1.27;;;8.80;99.90;;;;;;7396661;19;20159;-73
2023/12/09 03:58:55;;;;;;;1.87;1.70;;;8.80;99.90;;;;;;7393079;19;20134;-73
2023/12/09 04:01:24;;;;;;;2.10;1.50;;;8.60;99.90;;;;;;7398001;19;20166;-73
2023/12/09 04:03:50;;;;;;;1.60;1.50;;;8.20;99.90;;;;;;7396057;19;20158;-73
2023/12/09 04:06:17;;;;;;;1.97;1.60;;;8.10;99.90;;;;;;7394638;19;20181;-72
2023/12/09 04:08:43;;;;;;;1.60;1.47;;;8.00;99.90;;;;;;7390830;19;20143;-73
2023/12/09 04:11:09;;;;;;;1.73;1.20;;;8.10;99.90;;;;;;7397346;19;20176;-73
2023/12/09 04:13:34;;;;;;;3.90;2.00;;;8.30;99.90;;;;;;7395464;19;20142;-72
2023/12/09 04:16:01;;;;;;;1.77;1.57;;;7.80;99.90;;;;;;7396727;19;20194;-72
2023/12/09 04:18:26;;;;;;;1.67;1.20;;;7.60;99.90;;;;;;7395842;19;20145;-71
2023/12/09 04:20:52;;;;;;;1.20;1.10;;;7.40;99.90;;;;;;7397200;19;20914;-73
2023/12/09 04:23:21;;;;;;;1.63;1.00;;;7.30;99.90;;;;;;7398522;19;20150;-73
2023/12/09 04:25:47;;;;;;;1.10;0.93;;;7.60;99.90;;;;;;7395876;19;20143;-72
2023/12/09 04:28:12;;;;;;;2.80;0.77;;;7.80;99.90;;;;;;7395443;19;20170;-72
2023/12/09 04:30:38;;;;;;;1.23;1.13;;;8.00;99.90;;;;;;7395816;19;20130;-72
2023/12/09 04:33:04;;;;;;;2.33;1.10;;;8.00;99.90;;;;;;7394994;19;20150;-72
2023/12/09 04:35:30;;;;;;;1.20;1.03;;;8.00;99.90;;;;;;7396158;19;20142;-73
2023/12/09 04:37:55;;;;;;;3.30;1.47;;;8.00;99.90;;;;;;7396882;19;20137;-72
2023/12/09 04:40:21;;;;;;;2.40;1.27;;;8.20;99.90;;;;;;7395562;19;20137;-73
2023/12/09 04:42:47;;;;;;;0.90;0.90;;;8.10;99.90;;;;;;7395754;19;20301;-73
2023/12/09 04:45:13;;;;;;;2.03;1.33;;;8.10;99.90;;;;;;7396846;19;20498;-74
2023/12/09 04:47:39;;;;;;;1.47;1.10;;;8.20;99.90;;;;;;7394416;19;20146;-72
2023/12/09 04:50:08;;;;;;;1.10;1.00;;;8.30;99.90;;;;;;7398408;19;20571;-73
2023/12/09 04:52:35;;;;;;;0.83;0.83;;;8.30;99.90;;;;;;7392399;19;20134;-72
2023/12/09 04:55:01;;;;;;;2.20;0.97;;;8.40;99.90;;;;;;7396091;19;20157;-73
2023/12/09 04:57:27;;;;;;;1.13;1.00;;;8.60;99.90;;;;;;7393482;19;20206;-72
2023/12/09 04:59:53;;;;;;;0.73;0.73;;;8.60;99.90;;;;;;7395764;19;20175;-72
2023/12/09 05:02:20;;;;;;;0.83;0.83;;;8.70;99.90;;;;;;7395662;19;20211;-72
2023/12/09 05:04:46;;;;;;;1.43;0.80;;;8.50;99.90;;;;;;7393693;19;20233;-72
2023/12/09 05:07:12;;;;;;;1.20;1.10;;;8.50;99.90;;;;;;7392456;19;20150;-72
2023/12/09 05:09:38;;;;;;;1.43;1.00;;;8.60;99.90;;;;;;7396704;19;20134;-73
2023/12/09 05:12:04;;;;;;;0.80;0.80;;;8.30;99.90;;;;;;7392640;19;20591;-72
2023/12/09 05:14:30;;;;;;;1.00;0.90;;;8.30;99.90;;;;;;7391635;19;20152;-73
2023/12/09 05:16:55;;;;;;;1.53;1.03;;;8.40;99.90;;;;;;7393832;19;20135;-73
2023/12/09 05:19:22;;;;;;;0.60;0.60;;;8.30;99.90;;;;;;7393992;19;20276;-71
2023/12/09 05:21:48;;;;;;;1.03;0.90;;;8.40;99.90;;;;;;7393498;19;20177;-72
2023/12/09 05:24:13;;;;;;;1.23;1.00;;;8.40;99.90;;;;;;7394575;19;20139;-72
2023/12/09 05:26:39;;;;;;;0.90;0.80;;;8.50;99.90;;;;;;7394160;19;20183;-72
2023/12/09 05:29:06;;;;;;;0.80;0.80;;;8.60;99.90;;;;;;7392311;19;20213;-73
2023/12/09 05:31:32;;;;;;;1.17;0.93;;;8.60;99.90;;;;;;7392956;19;20162;-73
2023/12/09 05:33:58;;;;;;;1.07;0.97;;;8.40;99.90;;;;;;7394982;19;20135;-72
2023/12/09 05:36:23;;;;;;;1.10;1.00;;;8.50;99.90;;;;;;7393900;19;20162;-73
2023/12/09 05:38:49;;;;;;;1.40;0.93;;;8.60;99.90;;;;;;7394754;19;20159;-73
2023/12/09 05:41:15;;;;;;;1.17;0.90;;;8.70;99.90;;;;;;7393300;19;20146;-73
2023/12/09 05:43:43;;;;;;;1.10;0.90;;;8.50;99.90;;;;;;7394848;19;20150;-73
2023/12/09 05:46:16;;;;;;;1.37;1.03;;;8.50;99.90;;;;;;7393950;19;20131;-74
2023/12/09 05:48:41;;;;;;;0.60;0.60;;;8.70;99.90;;;;;;7392793;19;20260;-73
2023/12/09 05:51:09;;;;;;;0.80;0.67;;;8.70;99.90;;;;;;7394186;19;20210;-73
2023/12/09 05:53:35;;;;;;;1.40;1.00;;;8.60;99.90;;;;;;7392953;19;20472;-73
2023/12/09 05:56:01;;;;;;;1.73;1.43;;;8.20;99.90;;;;;;7395114;19;20151;-73
2023/12/09 05:58:26;;;;;;;0.80;0.80;;;8.10;99.90;;;;;;7392326;19;20539;-74
2023/12/09 06:00:52;;;;;;;0.90;0.90;;;8.10;99.90;;;;;;7393322;19;20143;-72
2023/12/09 06:03:18;;;;;;;0.70;0.70;;;8.30;99.90;;;;;;7394790;19;20144;-74
2023/12/09 06:05:44;;;;;;;2.93;1.17;;;8.30;99.90;;;;;;7392119;19;20605;-73
2023/12/09 06:08:09;;;;;;;0.73;0.73;;;8.40;99.90;;;;;;7389098;19;20621;-73
2023/12/09 06:10:35;;;;;;;1.20;0.67;;;8.50;99.90;;;;;;7392603;19;20150;-73
2023/12/09 06:13:01;;;;;;;1.50;1.00;;;8.50;99.90;;;;;;7393677;19;20592;-74
2023/12/09 06:15:27;;;;;;;0.97;0.87;;;8.40;99.90;;;;;;7392473;19;20242;-72
2023/12/09 06:17:52;;;;;;;2.37;0.70;;;8.50;99.90;;;;;;7392148;19;20154;-73
2023/12/09 06:20:18;;;;;;;1.30;1.20;;;8.40;99.90;;;;;;7394051;19;20243;-72
2023/12/09 06:22:44;;;;;;;0.70;0.70;;;8.60;99.90;;;;;;7393257;19;20218;-73
2023/12/09 06:25:09;;;;;;;1.53;0.90;;;8.50;99.90;;;;;;7391746;19;20143;-73
2023/12/09 06:27:36;;;;;;;0.43;0.43;;;8.50;99.90;;;;;;7393703;19;20150;-73
2023/12/09 06:30:04;;;;;;;1.37;1.00;;;8.70;99.90;;;;;;7393233;19;20146;-73
2023/12/09 06:32:29;;;;;;;1.70;1.07;;;8.70;99.90;;;;;;7393226;19;20149;-72
2023/12/09 06:34:55;;;;;;;0.50;0.50;;;8.70;99.90;;;;;;7392585;19;20214;-73
2023/12/09 06:37:21;;;;;;;1.37;1.27;;;8.60;99.90;;;;;;7394559;19;20587;-73
2023/12/09 06:39:46;;;;;;;1.50;0.90;;;8.70;99.90;;;;;;7395547;19;20182;-73
2023/12/09 06:42:14;;;;;;;1.10;0.80;;;8.70;99.90;;;;;;7396537;19;20142;-73
2023/12/09 06:44:40;;;;;;;1.17;1.07;;;8.70;99.90;;;;;;7394715;19;20168;-72
2023/12/09 06:47:05;;;;;;;1.90;1.00;;;8.70;99.90;;;;;;7395058;19;20139;-72
2023/12/09 06:49:31;;;;;;;0.63;0.63;;;8.70;99.90;;;;;;7392802;19;20173;-72
2023/12/09 06:51:57;;;;;;;0.53;0.53;;;8.70;99.90;;;;;;7391647;19;20174;-72
2023/12/09 06:54:23;;;;;;;1.00;0.70;;;8.70;99.90;;;;;;7390699;19;20551;-72
2023/12/09 06:56:48;;;;;;;0.70;0.70;;;8.70;99.90;;;;;;7390718;19;20170;-72
2023/12/09 06:59:14;;;;;;;1.33;0.90;;;8.60;99.90;;;;;;7391044;19;20166;-73
2023/12/09 07:01:42;;;;;;;0.50;0.50;;;8.70;99.90;;;;;;7392162;19;20131;-73
2023/12/09 07:04:09;;;;;;;0.93;0.67;;;8.70;99.90;;;;;;7390796;19;20147;-73
2023/12/09 07:06:35;;;;;;;0.70;0.70;;;8.80;99.90;;;;;;7389782;19;20150;-73
2023/12/09 07:09:01;;;;;;;1.23;0.83;;;8.80;99.90;;;;;;7387382;19;20134;-73
2023/12/09 07:11:27;;;;;;;0.60;0.60;;;8.80;99.90;;;;;;7388959;19;20142;-73
2023/12/09 07:13:53;;;;;;;0.70;0.67;;;8.80;99.90;;;;;;7392480;19;20129;-72
2023/12/09 07:16:19;;;;;;;0.83;0.73;;;8.80;99.90;;;;;;7387711;19;20135;-72
2023/12/09 07:18:46;;;;;;;0.83;0.63;;;8.70;99.90;;;;;;7388237;19;20137;-73
2023/12/09 07:21:15;;;;;;;0.77;0.73;;;8.60;99.90;;;;;;7388448;19;20845;-72
2023/12/09 07:23:42;;;;;;;0.37;0.33;;;8.30;99.90;;;;;;7390192;19;20154;-72
2023/12/09 07:26:09;;;;;;;0.50;0.50;;;8.60;99.90;;;;;;7391922;19;20483;-73
2023/12/09 07:28:35;;;;;;;0.70;0.50;;;8.80;99.90;;;;;;7390165;19;20145;-72
2023/12/09 07:31:01;;;;;;;0.67;0.67;;;8.80;99.90;;;;;;7387644;19;20146;-72
2023/12/09 07:33:27;;;;;;;0.63;0.57;;;8.70;99.90;;;;;;7393170;19;20131;-72
2023/12/09 07:35:53;;;;;;;0.87;0.60;;;8.70;99.90;;;;;;7389224;19;20138;-72
2023/12/09 07:38:18;;;;;;;0.83;0.67;;;8.70;99.90;;;;;;7388371;19;20130;-74
2023/12/09 07:40:44;;;;;;;0.40;0.40;;;8.80;99.90;;;;;;7389432;19;20168;-73
2023/12/09 07:43:10;;;;;;;0.93;0.67;;;8.60;99.90;;;;;;7389393;19;20164;-72
2023/12/09 07:45:36;;;;;;;0.50;0.50;;;8.70;99.90;;;;;;7388141;19;20156;-73
2023/12/09 07:48:03;;;;;;;0.50;0.50;;;8.80;99.90;;;;;;7390270;19;20158;-73
2023/12/09 07:50:32;;;;;;;0.73;0.70;;;8.80;99.90;;;;;;7386817;19;20562;-73
2023/12/09 07:53:02;;;;;;;0.80;0.63;;;8.90;99.90;;;;;;7386916;19;20185;-73
2023/12/09 07:55:28;;;;;;;1.50;0.70;;;8.90;99.90;;;;;;7388923;19;20151;-73
2023/12/09 07:57:54;;;;;;;0.50;0.50;;;9.00;99.90;;;;;;7388409;19;20149;-72
2023/12/09 08:00:19;;;;;;;0.53;0.43;;;9.00;99.90;;;;;;7387297;19;20191;-72
2023/12/09 08:02:45;;;;;;;1.10;0.67;;;9.10;99.90;;;;;;7391370;19;20131;-73
2023/12/09 08:05:11;;;;;;;0.57;0.57;;;9.20;99.90;;;;;;7388998;19;20650;-73
2023/12/09 08:07:37;;;;;;;0.60;0.60;;;9.10;99.90;;;;;;7386026;19;20135;-74
2023/12/09 08:10:03;;;;;;;0.70;0.60;;;9.10;99.90;;;;;;7389469;19;20131;-73
2023/12/09 08:12:28;;;;;;;1.30;0.73;;;9.00;99.90;;;;;;7388500;19;20135;-73
2023/12/09 08:14:56;;;;;;;3.73;0.70;;;9.00;99.90;;;;;;7387678;19;20156;-75
2023/12/09 08:17:21;;;;;;;0.30;0.30;;;9.10;99.90;;;;;;7387253;19;20210;-73
2023/12/09 08:19:47;;;;;;;0.73;0.73;;;9.10;99.90;;;;;;7388561;19;20150;-73
2023/12/09 08:22:13;;;;;;;0.43;0.40;;;9.00;99.90;;;;;;7388679;19;20637;-74
2023/12/09 08:24:40;;;;;;;0.83;0.70;;;8.90;99.90;;;;;;7386361;19;20143;-74
2023/12/09 08:27:06;;;;;;;0.63;0.63;;;9.10;99.90;;;;;;7387252;19;20615;-74
2023/12/09 08:29:32;;;;;;;0.40;0.40;;;9.10;99.90;;;;;;7388084;19;20218;-74
2023/12/09 08:31:58;;;;;;;0.27;0.27;;;9.10;99.90;;;;;;7392523;19;20198;-73
2023/12/09 08:34:24;;;;;;;1.00;0.40;;;9.20;99.90;;;;;;7389071;19;20502;-73
2023/12/09 08:36:49;;;;;;;1.03;0.70;;;9.10;99.90;;;;;;7386835;19;20625;-73
2023/12/09 08:39:17;;;;;;;2.00;1.10;;;9.10;99.90;;;;;;7391214;19;20162;-74
2023/12/09 08:41:44;;;;;;;0.37;0.37;;;9.10;99.90;;;;;;7393430;19;20169;-73
2023/12/09 08:44:10;;;;;;;0.70;0.70;;;9.10;99.90;;;;;;7392172;19;20142;-73
2023/12/09 08:46:36;;;;;;;1.40;0.57;;;9.10;99.90;;;;;;7394431;19;20491;-73
2023/12/09 08:49:02;;;;;;;0.67;0.53;;;9.20;99.90;;;;;;7368515;19;20138;-75
2023/12/09 08:51:29;;;;;;;5.70;0.93;;;9.20;99.90;;;;;;7391779;19;20146;-74
2023/12/09 08:53:54;;;;;;;0.77;0.77;;;9.10;99.90;;;;;;7393938;19;20202;-73
2023/12/09 08:56:20;;;;;;;0.80;0.80;;;9.20;99.90;;;;;;7393965;19;20507;-73
2023/12/09 08:58:46;;;;;;;2.77;1.00;;;9.30;99.90;;;;;;7393367;19;20171;-74
2023/12/09 09:01:12;;;;;;;1.10;0.80;;;9.20;99.90;;;;;;7393233;19;20599;-73
2023/12/09 09:03:38;;;;;;;1.20;0.73;;;9.10;99.90;;;;;;7392588;19;20135;-74
2023/12/09 09:06:05;;;;;;;0.73;0.67;;;9.10;99.90;;;;;;7389503;19;20189;-74
2023/12/09 09:08:31;;;;;;;0.30;0.30;;;9.10;99.90;;;;;;7389464;19;20563;-74
2023/12/09 09:10:57;;;;;;;1.37;0.90;;;9.20;99.90;;;;;;7392528;19;20139;-75
2023/12/09 09:13:23;;;;;;;2.47;0.80;;;9.20;99.90;;;;;;7395332;19;20176;-75
2023/12/09 09:15:50;;;;;;;0.77;0.77;;;9.20;99.90;;;;;;7394674;19;20154;-73
2023/12/09 09:18:15;;;;;;;0.60;0.60;;;9.40;99.90;;;;;;7393332;19;20139;-74
2023/12/09 09:20:42;;;;;;;0.80;0.80;;;9.10;99.90;;;;;;7394337;19;20901;-74
2023/12/09 09:23:09;;;;;;;0.60;0.60;;;9.30;99.90;;;;;;7393187;19;20158;-74
2023/12/09 09:25:35;;;;;;;0.50;0.50;;;9.40;99.90;;;;;;7395956;19;20147;-74
2023/12/09 09:28:02;;;;;;;0.90;0.73;;;9.50;99.90;;;;;;7388532;19;20878;-74
2023/12/09 09:30:29;;;;;;;0.50;0.50;;;9.50;99.90;;;;;;7390779;19;20150;-73
2023/12/09 09:32:54;;;;;;;2.43;0.80;;;9.40;99.90;;;;;;7395757;19;20134;-73
2023/12/09 09:35:20;;;;;;;0.60;0.60;;;9.40;99.90;;;;;;7392891;19;20155;-75
2023/12/09 09:37:47;;;;;;;0.80;0.70;;;9.30;99.90;;;;;;7393188;19;20143;-74
2023/12/09 09:40:14;;;;;;;0.73;0.50;;;9.40;99.90;;;;;;7396277;19;20127;-74
2023/12/09 09:42:47;;;;;;;1.43;0.77;;;9.40;99.90;;;;;;7393935;19;20143;-74
2023/12/09 09:45:24;;;;;;;0.50;0.50;;;9.50;99.90;;;;;;7393008;19;20144;-74
2023/12/09 09:47:52;;;;;;;0.90;0.73;;;9.60;99.90;;;;;;7391138;19;20502;-74
2023/12/09 09:50:23;;;;;;;1.07;0.60;;;9.60;99.90;;;;;;7393981;19;20141;-73
2023/12/09 09:52:50;;;;;;;0.50;0.50;;;9.50;99.90;;;;;;7390109;19;20135;-73
2023/12/09 09:55:18;;;;;;;0.43;0.43;;;9.50;99.90;;;;;;7393049;19;20164;-73
2023/12/09 09:57:44;;;;;;;0.70;0.70;;;9.60;99.90;;;;;;7392244;19;20813;-73
2023/12/09 10:00:14;;;;;;;0.63;0.60;;;9.70;99.90;;;;;;7393675;19;20154;-73
2023/12/09 10:02:48;;;;;;;1.63;0.77;;;9.70;99.90;;;;;;7389054;19;20146;-72
2023/12/09 10:05:20;;;;;;;1.83;0.60;;;9.70;99.90;;;;;;7391654;19;20198;-74
2023/12/09 10:07:46;;;;;;;1.20;1.00;;;9.70;99.90;;;;;;7391999;19;20624;-74
2023/12/09 10:10:13;;;;;;;1.10;0.83;;;9.80;99.90;;;;;;7392202;19;20146;-72
2023/12/09 10:12:40;;;;;;;0.70;0.70;;;9.80;99.90;;;;;;7391559;19;20160;-74
2023/12/09 10:15:06;;;;;;;1.43;0.90;;;9.80;99.90;;;;;;7390268;19;20158;-73
2023/12/09 10:17:32;;;;;;;0.30;0.30;;;9.90;99.90;;;;;;7394140;19;20162;-72
2023/12/09 10:19:58;;;;;;;1.00;0.80;;;9.90;99.90;;;;;;7391893;19;20500;-73
2023/12/09 10:22:28;;;;;;;0.40;0.40;;;9.80;99.90;;;;;;7393611;19;20129;-75
2023/12/09 10:24:55;;;;;;;1.37;1.10;;;9.90;99.90;;;;;;7390275;19;20275;-73
2023/12/09 10:27:22;;;;;;;1.27;0.60;;;9.80;99.90;;;;;;7388561;19;20150;-73
2023/12/09 10:29:49;;;;;;;2.20;1.07;;;9.90;99.90;;;;;;7390132;19;20169;-74
2023/12/09 10:32:15;;;;;;;1.77;0.50;;;9.90;99.90;;;;;;7392027;19;20603;-75
2023/12/09 10:34:42;;;;;;;1.33;1.23;;;9.90;99.90;;;;;;7393533;19;20130;-73
2023/12/09 10:37:09;;;;;;;0.57;0.57;;;9.90;99.90;;;;;;7390710;19;20134;-73
2023/12/09 10:39:35;;;;;;;0.60;0.60;;;9.80;99.90;;;;;;7392095;19;20127;-73
2023/12/09 10:42:04;;;;;;;1.03;0.40;;;9.80;99.90;;;;;;7390264;19;20147;-73
2023/12/09 10:44:30;;;;;;;0.50;0.50;;;9.80;99.90;;;;;;7394616;19;20130;-74
2023/12/09 10:46:56;;;;;;;1.90;0.63;;;9.90;99.90;;;;;;7391563;19;20142;-73
2023/12/09 10:49:22;;;;;;;0.53;0.50;;;9.90;99.90;;;;;;7389081;19;20135;-73
2023/12/09 10:51:48;;;;;;;0.30;0.30;;;9.80;99.90;;;;;;7393739;19;20147;-73
2023/12/09 10:54:14;;;;;;;0.63;0.60;;;9.90;99.90;;;;;;7389719;19;20162;-73
2023/12/09 10:56:39;;;;;;;0.50;0.50;;;9.90;99.90;;;;;;7390745;19;20135;-73
2023/12/09 10:59:08;;;;;;;0.77;0.70;;;10.00;99.90;;;;;;7387177;19;20150;-72
2023/12/09 11:01:37;;;;;;;0.70;0.70;;;10.10;99.90;;;;;;7389912;19;20189;-73
2023/12/09 11:04:04;;;;;;;1.00;0.90;;;10.20;99.90;;;;;;7389426;19;20141;-72
2023/12/09 11:06:34;;;;;;;1.53;0.97;;;10.30;99.90;;;;;;7391759;19;20126;-73
2023/12/09 11:09:01;;;;;;;1.10;0.80;;;10.30;99.90;;;;;;7389008;19;20142;-72
2023/12/09 11:11:28;;;;;;;1.37;1.13;;;10.00;99.90;;;;;;7393171;19;20142;-73
2023/12/09 11:13:54;;;;;;;0.50;0.50;;;10.20;99.90;;;;;;7388683;19;20134;-73
2023/12/09 11:16:23;;;;;;;0.50;0.50;;;10.30;99.90;;;;;;7388809;19;20122;-74
2023/12/09 11:18:54;;;;;;;0.97;0.50;;;10.30;99.90;;;;;;7387586;19;20886;-73
2023/12/09 11:21:21;;;;;;;0.53;0.53;;;10.10;99.90;;;;;;7392951;19;20505;-73
2023/12/09 11:23:51;;;;;;;0.50;0.50;;;10.10;99.90;;;;;;7390877;19;20558;-72
2023/12/09 11:26:21;;;;;;;0.60;0.60;;;10.10;99.90;;;;;;7391596;19;20140;-71
2023/12/09 11:29:06;;;;;;;0.47;0.47;;;10.10;99.90;;;;;;7389880;19;20130;-73
2023/12/09 11:31:36;;;;;;;1.83;0.73;;;10.10;99.90;;;;;;7391482;19;20140;-73
2023/12/09 11:34:06;;;;;;;1.77;0.60;;;10.20;99.90;;;;;;7389777;19;20157;-73
2023/12/09 11:36:38;;;;;;;0.70;0.60;;;10.10;99.90;;;;;;7388335;19;20150;-74
2023/12/09 11:39:06;;;;;;;1.07;0.70;;;10.20;99.90;;;;;;7387461;19;20150;-73
2023/12/09 11:41:36;;;;;;;0.40;0.40;;;10.20;99.90;;;;;;7384828;19;20139;-74
2023/12/09 11:44:04;;;;;;;0.93;0.80;;;10.10;99.90;;;;;;7383659;19;20130;-73
2023/12/09 11:46:31;;;;;;;0.97;0.70;;;10.20;99.90;;;;;;7388007;19;20150;-74
2023/12/09 11:49:01;;;;;;;0.73;0.60;;;10.20;99.90;;;;;;7385420;19;20138;-73
2023/12/09 11:51:28;;;;;;;0.47;0.40;;;10.20;99.90;;;;;;7391834;19;20138;-75
2023/12/09 11:54:01;;;;;;;0.60;0.50;;;10.20;99.90;;;;;;7388034;19;20147;-75
2023/12/09 11:56:28;;;;;;;1.13;0.87;;;10.20;99.90;;;;;;7388524;19;20137;-75
2023/12/09 11:58:55;;;;;;;0.63;0.63;;;10.10;99.90;;;;;;7388238;19;20146;-74
2023/12/09 12:01:22;;;;;;;0.70;0.70;;;10.10;99.90;;;;;;7389223;19;20146;-74
2023/12/09 12:03:49;;;;;;;1.23;0.50;;;10.20;99.90;;;;;;7388102;19;20150;-75
2023/12/09 12:06:19;;;;;;;1.00;0.60;;;10.30;99.90;;;;;;7388332;19;20173;-74
2023/12/09 12:08:50;;;;;;;1.33;0.87;;;10.30;99.90;;;;;;7393474;19;20142;-74
2023/12/09 12:11:18;;;;;;;0.80;0.70;;;10.40;99.90;;;;;;7395100;19;20141;-76
2023/12/09 12:13:44;;;;;;;1.33;0.50;;;10.40;99.90;;;;;;7397813;19;20588;-75
2023/12/09 12:16:11;;;;;;;1.20;0.73;;;10.30;99.90;;;;;;7392859;19;20150;-74
2023/12/09 12:18:37;;;;;;;1.50;1.03;;;10.30;99.90;;;;;;7396703;19;20147;-78
2023/12/09 12:21:05;;;;;;;0.87;0.77;;;10.30;99.90;;;;;;7398073;19;20130;-75
2023/12/09 12:23:34;;;;;;;0.87;0.83;;;10.20;99.90;;;;;;7396832;19;20159;-79
2023/12/09 12:26:00;;;;;;;0.87;0.80;;;10.20;99.90;;;;;;7395866;19;20253;-80
2023/12/09 12:28:26;;;;;;;0.63;0.63;;;10.20;99.90;;;;;;7388643;19;20523;-74
2023/12/09 12:30:54;;;;;;;1.93;1.27;;;10.30;99.90;;;;;;7391364;19;20138;-75
2023/12/09 12:33:21;;;;;;;0.43;0.43;;;10.10;99.90;;;;;;7391768;19;20206;-74
2023/12/09 12:35:54;;;;;;;0.70;0.60;;;10.10;99.90;;;;;;7394019;19;20135;-76
2023/12/09 12:38:23;;;;;;;1.43;0.83;;;10.10;99.90;;;;;;7393069;19;20139;-75
2023/12/09 12:40:54;;;;;;;1.23;0.80;;;10.20;99.90;;;;;;7396871;19;20181;-75
2023/12/09 12:43:20;;;;;;;1.10;0.67;;;10.20;99.90;;;;;;7393328;19;20270;-75
2023/12/09 12:45:49;;;;;;;1.13;0.80;;;10.20;99.90;;;;;;7395099;19;20138;-75
2023/12/09 12:48:15;;;;;;;0.87;0.83;;;10.20;99.90;;;;;;7392622;19;20147;-75
2023/12/09 12:50:47;;;;;;;0.60;0.60;;;10.50;99.90;;;;;;7393338;19;20135;-76
2023/12/09 12:53:18;;;;;;;0.40;0.40;;;10.50;99.90;;;;;;7391422;19;20171;-77